Time;durP1;ratioP1;P1;durP2;ratioP2;P2;SDS_P1;SDS_P2;PMS_P1;PMS_P2;Temp;Humidity;BMP_temperature;BMP_pressure;BME280_temperature;BME280_humidity;BME280_pressure;Samples;Min_cycle;Max_cycle;Signal;HPM_P1;HPM_P2
2023/07/09 00:01:51;;;;;;;6.00;5.40;;;18.80;99.90;;;;;;5101439;28;20518;-77
2023/07/09 00:04:19;;;;;;;7.60;5.43;;;18.70;99.90;;;;;;5101912;28;20527;-79
2023/07/09 00:06:46;;;;;;;5.20;4.73;;;18.70;99.90;;;;;;5096132;28;20470;-79
2023/07/09 00:09:17;;;;;;;5.00;4.60;;;18.60;99.90;;;;;;5101458;28;20446;-79
2023/07/09 00:11:45;;;;;;;8.30;4.83;;;18.60;99.90;;;;;;5098181;28;20841;-77
2023/07/09 00:14:13;;;;;;;6.57;4.47;;;18.50;99.90;;;;;;5098879;28;20492;-80
2023/07/09 00:16:41;;;;;;;4.47;4.13;;;18.60;99.90;;;;;;5104773;28;20486;-78
2023/07/09 00:19:13;;;;;;;4.87;4.47;;;18.50;99.90;;;;;;5102537;28;20509;-79
2023/07/09 00:21:40;;;;;;;6.03;5.53;;;18.40;99.90;;;;;;5101746;28;21098;-79
2023/07/09 00:24:10;;;;;;;6.97;5.20;;;18.40;99.90;;;;;;5100053;28;20511;-79
2023/07/09 00:26:40;;;;;;;8.13;7.33;;;18.30;99.90;;;;;;5098184;28;20458;-78
2023/07/09 00:29:09;;;;;;;5.80;4.90;;;18.40;99.90;;;;;;5106009;28;20525;-78
2023/07/09 00:31:38;;;;;;;7.50;5.20;;;18.50;99.90;;;;;;5106432;28;20477;-79
2023/07/09 00:34:05;;;;;;;4.90;4.23;;;18.40;99.90;;;;;;5102717;28;20541;-79
2023/07/09 00:36:33;;;;;;;4.20;3.80;;;18.20;99.90;;;;;;5102947;28;21182;-80
2023/07/09 00:39:04;;;;;;;5.40;4.87;;;18.20;99.90;;;;;;5090551;28;20455;-81
2023/07/09 00:41:34;;;;;;;6.03;5.13;;;18.20;99.90;;;;;;5098153;28;20490;-78
2023/07/09 00:44:24;;;;;;;8.60;5.80;;;18.20;99.90;;;;;;5101524;28;20443;-79
2023/07/09 00:47:18;;;;;;;5.07;4.57;;;18.20;99.90;;;;;;5097500;28;20814;-79
2023/07/09 00:49:47;;;;;;;5.57;5.07;;;18.20;99.90;;;;;;5101164;28;20758;-80
2023/07/09 00:52:25;;;;;;;6.07;5.50;;;18.20;99.90;;;;;;5104433;27;20451;-79
2023/07/09 00:54:53;;;;;;;4.67;4.23;;;18.20;99.90;;;;;;5099493;28;20445;-78
2023/07/09 00:57:24;;;;;;;5.83;5.23;;;18.20;99.90;;;;;;5096642;28;20447;-78
2023/07/09 00:59:56;;;;;;;5.70;5.20;;;18.20;99.90;;;;;;5104751;28;21009;-77
2023/07/09 01:02:24;;;;;;;6.23;5.60;;;18.20;99.90;;;;;;5094151;28;20513;-81
2023/07/09 01:04:52;;;;;;;4.77;4.37;;;18.30;99.90;;;;;;5103764;28;20478;-79
2023/07/09 01:07:21;;;;;;;5.50;5.00;;;18.30;99.90;;;;;;5098661;28;20986;-78
2023/07/09 01:09:48;;;;;;;8.53;5.33;;;18.30;99.90;;;;;;5102405;28;20451;-78
2023/07/09 01:12:19;;;;;;;6.47;4.77;;;18.40;99.90;;;;;;5101761;28;20451;-77
2023/07/09 01:14:48;;;;;;;4.20;3.90;;;18.30;99.90;;;;;;5107987;28;20499;-78
2023/07/09 01:17:16;;;;;;;4.27;3.97;;;18.20;99.90;;;;;;5095920;27;20542;-79
2023/07/09 01:19:49;;;;;;;5.63;4.13;;;18.30;99.90;;;;;;5101171;28;20499;-77
2023/07/09 01:22:19;;;;;;;6.07;4.00;;;18.30;99.90;;;;;;5104114;27;20890;-77
2023/07/09 01:25:01;;;;;;;5.70;4.60;;;18.30;99.90;;;;;;5103184;28;20454;-78
2023/07/09 01:27:33;;;;;;;5.10;4.60;;;18.30;99.90;;;;;;5106303;28;20941;-78
2023/07/09 01:30:03;;;;;;;7.00;4.07;;;18.30;99.90;;;;;;5103679;28;20463;-78
2023/07/09 01:32:31;;;;;;;4.33;3.87;;;18.30;99.90;;;;;;5108655;27;20466;-79
2023/07/09 01:35:04;;;;;;;4.90;4.40;;;18.30;99.90;;;;;;5108738;28;20450;-79
2023/07/09 01:37:35;;;;;;;4.73;3.47;;;18.30;99.90;;;;;;5106525;28;20454;-79
2023/07/09 01:40:04;;;;;;;4.93;4.10;;;18.30;99.90;;;;;;5098921;28;21241;-79
2023/07/09 01:42:32;;;;;;;5.00;3.83;;;18.40;99.90;;;;;;5102646;28;21075;-80
2023/07/09 01:44:59;;;;;;;13.03;6.80;;;18.40;99.90;;;;;;5095932;27;20942;-80
2023/07/09 01:47:27;;;;;;;8.20;4.20;;;18.40;99.90;;;;;;5103214;27;20831;-78
2023/07/09 01:49:56;;;;;;;5.03;4.53;;;18.50;99.90;;;;;;5107069;28;20877;-80
2023/07/09 01:52:27;;;;;;;3.73;3.53;;;18.60;99.90;;;;;;5107478;28;20515;-81
2023/07/09 01:54:55;;;;;;;5.97;3.87;;;18.40;99.90;;;;;;5108841;27;20476;-79
2023/07/09 01:57:24;;;;;;;3.93;3.63;;;18.40;99.90;;;;;;5108434;28;20454;-80
2023/07/09 01:59:52;;;;;;;5.00;4.30;;;18.50;99.90;;;;;;5110955;27;20443;-79
2023/07/09 02:02:20;;;;;;;5.30;4.77;;;18.50;99.90;;;;;;5103241;28;20842;-80
2023/07/09 02:04:47;;;;;;;4.97;4.20;;;18.50;99.90;;;;;;5104721;28;20480;-80
2023/07/09 02:07:15;;;;;;;4.93;4.43;;;18.50;99.90;;;;;;5107665;28;20472;-78
2023/07/09 02:09:42;;;;;;;4.10;3.67;;;18.60;99.90;;;;;;5107423;28;20519;-78
2023/07/09 02:12:12;;;;;;;4.73;4.33;;;18.50;99.90;;;;;;5104713;28;20469;-80
2023/07/09 02:14:40;;;;;;;4.10;3.80;;;18.50;99.90;;;;;;5108612;28;20512;-80
2023/07/09 02:17:08;;;;;;;5.00;4.30;;;18.50;99.90;;;;;;5099876;28;20524;-81
2023/07/09 02:19:36;;;;;;;4.63;3.67;;;18.30;99.90;;;;;;5105845;28;20446;-81
2023/07/09 02:22:03;;;;;;;4.87;4.47;;;18.30;99.90;;;;;;5106819;27;20563;-78
2023/07/09 02:24:30;;;;;;;5.50;4.27;;;18.20;99.90;;;;;;5104064;28;20499;-80
2023/07/09 02:26:58;;;;;;;5.43;4.70;;;18.30;99.90;;;;;;5102340;28;20493;-79
2023/07/09 02:29:27;;;;;;;4.53;4.00;;;18.30;99.90;;;;;;5098993;27;21141;-79
2023/07/09 02:31:58;;;;;;;4.67;4.23;;;18.20;99.90;;;;;;5105092;27;20500;-80
2023/07/09 02:34:26;;;;;;;6.20;4.10;;;18.10;99.90;;;;;;5100315;27;20458;-80
2023/07/09 02:36:53;;;;;;;4.70;4.20;;;18.10;99.90;;;;;;5104616;28;20916;-82
2023/07/09 02:39:21;;;;;;;3.90;3.60;;;18.10;99.90;;;;;;5101678;28;20462;-80
2023/07/09 02:41:48;;;;;;;3.97;3.77;;;18.10;99.90;;;;;;5099065;28;20475;-80
2023/07/09 02:44:16;;;;;;;5.20;3.73;;;18.00;99.90;;;;;;5102763;28;20480;-78
2023/07/09 02:46:45;;;;;;;4.23;3.83;;;18.00;99.90;;;;;;5102122;27;21131;-78
2023/07/09 02:49:13;;;;;;;3.20;2.90;;;18.00;99.90;;;;;;5107270;27;20865;-79
2023/07/09 02:51:41;;;;;;;4.43;4.03;;;18.10;99.90;;;;;;5101186;28;20509;-79
2023/07/09 02:54:08;;;;;;;6.00;4.77;;;18.00;99.90;;;;;;5101365;28;20470;-78
2023/07/09 02:56:35;;;;;;;5.27;4.03;;;18.00;99.90;;;;;;5101770;28;20960;-78
2023/07/09 02:59:02;;;;;;;4.57;4.07;;;18.10;99.90;;;;;;5103904;27;20516;-79
2023/07/09 03:01:34;;;;;;;7.17;3.93;;;18.10;99.90;;;;;;5100197;28;20513;-80
2023/07/09 03:04:03;;;;;;;3.10;2.90;;;18.10;99.90;;;;;;5101447;28;20494;-80
2023/07/09 03:06:33;;;;;;;5.70;4.13;;;18.20;99.90;;;;;;5101324;28;20450;-81
2023/07/09 03:09:01;;;;;;;4.33;3.93;;;18.20;99.90;;;;;;5106768;28;20822;-78
2023/07/09 03:11:30;;;;;;;4.83;4.10;;;18.00;99.90;;;;;;5102718;28;20464;-80
2023/07/09 03:13:58;;;;;;;3.37;3.07;;;17.90;99.90;;;;;;5106506;28;20458;-80
2023/07/09 03:16:25;;;;;;;3.97;3.67;;;17.90;99.90;;;;;;5103134;28;20462;-78
2023/07/09 03:18:52;;;;;;;7.17;4.90;;;17.90;99.90;;;;;;5096339;27;20536;-81
2023/07/09 03:21:23;;;;;;;4.60;3.67;;;17.80;99.90;;;;;;5101430;27;20658;-79
2023/07/09 03:23:50;;;;;;;4.67;4.30;;;17.80;99.90;;;;;;5104609;27;20544;-80
2023/07/09 03:26:18;;;;;;;7.20;4.30;;;17.70;99.90;;;;;;5100131;28;20463;-78
2023/07/09 03:28:45;;;;;;;4.13;3.73;;;17.70;99.90;;;;;;5105876;28;20447;-78
2023/07/09 03:31:12;;;;;;;4.77;3.90;;;17.70;99.90;;;;;;5099196;28;20470;-81
2023/07/09 03:33:39;;;;;;;7.00;4.90;;;17.80;99.90;;;;;;5095999;28;20869;-79
2023/07/09 03:36:06;;;;;;;6.70;4.77;;;17.90;99.90;;;;;;5102671;28;20438;-80
2023/07/09 03:38:34;;;;;;;4.40;3.90;;;17.80;99.90;;;;;;5097416;28;20450;-78
2023/07/09 03:41:01;;;;;;;4.17;3.73;;;17.70;99.90;;;;;;5103206;28;20473;-78
2023/07/09 03:43:28;;;;;;;5.87;4.93;;;17.70;99.90;;;;;;5105239;28;21372;-80
2023/07/09 03:45:55;;;;;;;4.40;3.90;;;17.80;99.90;;;;;;5104395;27;20471;-79
2023/07/09 03:48:22;;;;;;;5.07;4.67;;;17.90;99.90;;;;;;5104683;28;20472;-79
2023/07/09 03:50:49;;;;;;;6.27;4.47;;;17.90;99.90;;;;;;5100784;28;20462;-80
2023/07/09 03:53:17;;;;;;;6.90;5.00;;;17.90;99.90;;;;;;5102078;28;20513;-77
2023/07/09 03:55:47;;;;;;;7.57;5.40;;;17.80;99.90;;;;;;5098737;28;20454;-81
2023/07/09 03:58:14;;;;;;;6.03;4.57;;;17.80;99.90;;;;;;5108552;27;21012;-80
2023/07/09 04:00:41;;;;;;;5.30;4.80;;;17.80;99.90;;;;;;5107543;27;20454;-80
2023/07/09 04:03:10;;;;;;;5.50;5.00;;;17.80;99.90;;;;;;5104824;28;21324;-81
2023/07/09 04:05:37;;;;;;;9.23;5.60;;;17.90;99.90;;;;;;5090780;28;20458;-81
2023/07/09 04:08:04;;;;;;;6.47;4.87;;;17.90;99.90;;;;;;5095337;28;20444;-81
2023/07/09 04:10:32;;;;;;;10.40;5.20;;;17.80;99.90;;;;;;5106730;28;20447;-81
2023/07/09 04:13:00;;;;;;;5.00;4.30;;;17.90;99.90;;;;;;5099951;28;20473;-80
2023/07/09 04:15:28;;;;;;;11.57;4.73;;;17.80;99.90;;;;;;5102773;28;20442;-80
2023/07/09 04:17:55;;;;;;;5.20;4.03;;;17.80;99.90;;;;;;5095747;28;20462;-76
2023/07/09 04:20:22;;;;;;;5.00;4.50;;;17.90;99.90;;;;;;5105516;28;20961;-80
2023/07/09 04:22:49;;;;;;;6.10;4.20;;;18.00;99.90;;;;;;5096265;28;21082;-78
2023/07/09 04:25:16;;;;;;;6.53;4.60;;;18.30;99.90;;;;;;5099436;28;20822;-78
2023/07/09 04:27:43;;;;;;;4.90;4.13;;;18.30;99.90;;;;;;5097378;28;20442;-76
2023/07/09 04:30:14;;;;;;;6.30;4.60;;;18.30;99.90;;;;;;5096498;28;20459;-79
2023/07/09 04:32:43;;;;;;;4.60;3.23;;;18.40;99.90;;;;;;5098566;28;20454;-78
2023/07/09 04:35:11;;;;;;;6.00;4.30;;;18.50;99.90;;;;;;5103432;28;20450;-79
2023/07/09 04:37:38;;;;;;;4.80;4.40;;;18.70;99.90;;;;;;5098759;28;20467;-80
2023/07/09 04:40:08;;;;;;;4.60;3.43;;;18.90;99.90;;;;;;5095653;27;20463;-79
2023/07/09 04:42:35;;;;;;;4.10;3.70;;;19.00;99.90;;;;;;5101012;28;20517;-78
2023/07/09 04:45:01;;;;;;;6.23;4.80;;;19.10;99.90;;;;;;5103709;28;20535;-78
2023/07/09 04:47:30;;;;;;;5.37;3.83;;;19.20;99.90;;;;;;5093741;28;20897;-78
2023/07/09 04:49:57;;;;;;;5.00;4.10;;;19.30;99.90;;;;;;5107920;27;20541;-79
2023/07/09 04:52:24;;;;;;;5.40;3.97;;;19.30;99.90;;;;;;5108999;28;20993;-78
2023/07/09 04:54:51;;;;;;;4.43;3.87;;;19.40;99.90;;;;;;5109530;28;20450;-80
2023/07/09 04:57:18;;;;;;;5.27;4.00;;;19.50;99.90;;;;;;5104816;27;20462;-78
2023/07/09 04:59:45;;;;;;;6.80;3.97;;;19.50;99.90;;;;;;5104558;28;20503;-82
2023/07/09 05:02:12;;;;;;;3.40;3.00;;;19.50;99.90;;;;;;5105700;27;20514;-80
2023/07/09 05:04:41;;;;;;;4.60;4.20;;;19.40;99.90;;;;;;5108597;28;20470;-78
2023/07/09 05:07:08;;;;;;;4.97;4.40;;;19.60;99.90;;;;;;5100149;28;20454;-76
2023/07/09 05:09:35;;;;;;;4.80;4.40;;;19.70;99.90;;;;;;5109986;28;20442;-78
2023/07/09 05:12:02;;;;;;;4.43;4.10;;;19.90;99.90;;;;;;5103374;28;20488;-79
2023/07/09 05:14:29;;;;;;;7.73;6.50;;;20.10;99.90;;;;;;5098887;28;20929;-79
2023/07/09 05:16:56;;;;;;;4.70;4.30;;;20.20;99.90;;;;;;5108150;28;20504;-78
2023/07/09 05:19:23;;;;;;;4.10;3.70;;;20.20;99.50;;;;;;5107679;28;20672;-78
2023/07/09 05:21:52;;;;;;;5.10;4.70;;;20.30;98.70;;;;;;5107766;27;20877;-79
2023/07/09 05:24:18;;;;;;;4.60;4.20;;;20.40;98.60;;;;;;5107495;28;20458;-79
2023/07/09 05:26:45;;;;;;;6.27;4.37;;;20.40;99.80;;;;;;5110311;27;21025;-79
2023/07/09 05:29:13;;;;;;;5.77;4.00;;;20.50;99.90;;;;;;5104818;28;20450;-78
2023/07/09 05:31:41;;;;;;;7.03;4.83;;;20.80;99.90;;;;;;5106699;27;20472;-79
2023/07/09 05:34:08;;;;;;;4.13;3.73;;;20.90;99.90;;;;;;5109082;28;20446;-79
2023/07/09 05:36:35;;;;;;;4.00;3.50;;;21.00;99.20;;;;;;5108287;28;20557;-78
2023/07/09 05:39:04;;;;;;;6.47;5.20;;;21.10;99.00;;;;;;5108600;28;21136;-81
2023/07/09 05:41:31;;;;;;;6.33;4.33;;;21.00;99.70;;;;;;5101392;28;20451;-77
2023/07/09 05:43:58;;;;;;;5.53;5.03;;;21.00;99.40;;;;;;5113944;27;20485;-79
2023/07/09 05:46:25;;;;;;;4.87;3.83;;;21.00;98.90;;;;;;5105588;28;20511;-79
2023/07/09 05:48:52;;;;;;;4.40;4.10;;;21.20;98.70;;;;;;5102957;28;20459;-81
2023/07/09 05:51:21;;;;;;;5.03;4.53;;;21.40;98.50;;;;;;5105423;28;20476;-78
2023/07/09 05:53:48;;;;;;;5.57;4.33;;;21.80;98.00;;;;;;5100436;28;20472;-81
2023/07/09 05:56:16;;;;;;;5.57;5.07;;;21.80;97.60;;;;;;5094371;28;20439;-79
2023/07/09 05:58:43;;;;;;;5.63;4.57;;;22.00;96.20;;;;;;5115351;27;20462;-79
2023/07/09 06:01:10;;;;;;;7.27;5.13;;;21.90;95.50;;;;;;5104409;28;20451;-78
2023/07/09 06:03:37;;;;;;;9.00;4.73;;;22.10;94.80;;;;;;5106872;28;20497;-79
2023/07/09 06:06:06;;;;;;;5.53;5.10;;;22.00;93.50;;;;;;5108537;28;20528;-78
2023/07/09 06:08:33;;;;;;;5.67;5.07;;;22.00;93.80;;;;;;5105525;28;20704;-81
2023/07/09 06:11:01;;;;;;;5.33;4.83;;;22.20;94.20;;;;;;5098468;28;20736;-78
2023/07/09 06:13:31;;;;;;;5.40;5.00;;;22.40;94.40;;;;;;5107140;28;21041;-80
2023/07/09 06:15:59;;;;;;;6.13;4.77;;;22.40;93.80;;;;;;5107570;28;20537;-79
2023/07/09 06:18:29;;;;;;;4.93;4.63;;;22.40;93.40;;;;;;5105740;28;20527;-79
2023/07/09 06:20:57;;;;;;;6.30;5.30;;;22.50;93.50;;;;;;5106565;28;20521;-78
2023/07/09 06:23:24;;;;;;;8.80;5.07;;;22.80;92.80;;;;;;5098835;28;21009;-82
2023/07/09 06:25:52;;;;;;;6.00;5.43;;;23.10;93.10;;;;;;5104398;28;20468;-78
2023/07/09 06:28:21;;;;;;;6.17;5.63;;;23.20;92.80;;;;;;5109436;27;20447;-80
2023/07/09 06:30:50;;;;;;;5.13;4.73;;;23.40;91.50;;;;;;5106667;28;20454;-79
2023/07/09 06:33:18;;;;;;;6.83;4.80;;;23.60;90.90;;;;;;5101657;28;20454;-81
2023/07/09 06:35:50;;;;;;;6.33;5.47;;;23.60;90.60;;;;;;5107993;28;20946;-80
2023/07/09 06:38:17;;;;;;;5.03;4.57;;;23.70;88.40;;;;;;5103519;27;20588;-79
2023/07/09 06:40:45;;;;;;;8.40;5.73;;;23.80;86.60;;;;;;5103653;28;20460;-78
2023/07/09 06:43:12;;;;;;;8.27;5.53;;;23.80;82.70;;;;;;5106369;27;20486;-79
2023/07/09 06:45:39;;;;;;;6.43;5.23;;;23.90;82.00;;;;;;5105259;28;20444;-81
2023/07/09 06:48:08;;;;;;;6.30;5.70;;;24.20;86.10;;;;;;5095019;27;20448;-80
2023/07/09 06:50:36;;;;;;;6.90;5.03;;;24.20;81.20;;;;;;5103133;27;20444;-79
2023/07/09 06:53:03;;;;;;;5.97;5.20;;;24.20;79.80;;;;;;5105922;28;20958;-79
2023/07/09 06:55:31;;;;;;;6.67;6.07;;;24.30;82.30;;;;;;5106058;28;20854;-79
2023/07/09 06:57:58;;;;;;;5.60;5.07;;;24.30;79.30;;;;;;5113445;27;20955;-79
2023/07/09 07:00:25;;;;;;;6.13;5.60;;;24.60;75.90;;;;;;5104558;28;21123;-81
2023/07/09 07:02:52;;;;;;;5.57;5.00;;;24.70;80.10;;;;;;5103940;27;20573;-79
2023/07/09 07:05:20;;;;;;;5.73;5.17;;;24.60;75.00;;;;;;5100824;28;20511;-80
2023/07/09 07:07:47;;;;;;;6.17;4.90;;;24.80;78.70;;;;;;5096224;28;20468;-80
2023/07/09 07:10:14;;;;;;;4.93;4.43;;;25.00;75.00;;;;;;5105518;27;20502;-79
2023/07/09 07:12:44;;;;;;;5.27;4.70;;;25.10;74.90;;;;;;5098869;27;20470;-80
2023/07/09 07:15:13;;;;;;;4.73;4.33;;;25.20;75.60;;;;;;5111365;27;20453;-81
2023/07/09 07:17:40;;;;;;;6.67;4.53;;;25.50;72.00;;;;;;5108277;28;20449;-79
2023/07/09 07:20:08;;;;;;;9.77;5.30;;;25.70;69.70;;;;;;5104280;28;20515;-79
2023/07/09 07:22:38;;;;;;;6.47;4.83;;;25.80;67.80;;;;;;5109632;27;20537;-79
2023/07/09 07:25:06;;;;;;;7.40;5.10;;;25.80;67.60;;;;;;5101524;27;20463;-78
2023/07/09 07:27:33;;;;;;;6.63;6.07;;;26.10;70.90;;;;;;5107024;28;20514;-79
2023/07/09 07:30:01;;;;;;;5.03;4.73;;;26.20;69.30;;;;;;5106687;28;20442;-79
2023/07/09 07:32:28;;;;;;;5.47;4.97;;;26.20;64.70;;;;;;5106340;28;20446;-79
2023/07/09 07:34:55;;;;;;;5.73;5.10;;;26.10;62.60;;;;;;5095505;28;20467;-80
2023/07/09 07:37:22;;;;;;;5.00;4.47;;;26.60;64.30;;;;;;5104793;28;20500;-78
2023/07/09 07:39:50;;;;;;;5.00;4.60;;;26.50;60.30;;;;;;5106118;28;22342;-78
2023/07/09 07:42:18;;;;;;;7.20;5.00;;;26.50;60.40;;;;;;5102225;28;20508;-79
2023/07/09 07:44:45;;;;;;;6.07;5.37;;;26.60;61.80;;;;;;5104235;28;21153;-81
2023/07/09 07:47:13;;;;;;;6.13;5.57;;;26.60;59.60;;;;;;5101708;28;20477;-82
2023/07/09 07:49:40;;;;;;;4.77;4.30;;;26.70;60.90;;;;;;5106234;28;20538;-81
2023/07/09 07:52:08;;;;;;;5.93;5.33;;;27.10;60.70;;;;;;5104639;28;21241;-81
2023/07/09 07:54:35;;;;;;;5.00;4.50;;;27.10;59.90;;;;;;5106342;28;20477;-79
2023/07/09 07:57:04;;;;;;;4.77;4.30;;;27.00;58.20;;;;;;5102295;28;20467;-81
2023/07/09 07:59:34;;;;;;;5.17;4.77;;;27.00;58.80;;;;;;5106575;28;20470;-82
2023/07/09 08:02:01;;;;;;;7.93;6.17;;;27.10;58.30;;;;;;5105283;28;20447;-82
2023/07/09 08:04:28;;;;;;;6.70;4.67;;;27.40;56.80;;;;;;5106048;28;20999;-81
2023/07/09 08:06:55;;;;;;;5.30;4.80;;;27.20;57.50;;;;;;5094404;28;20496;-81
2023/07/09 08:09:22;;;;;;;5.30;4.90;;;27.10;57.80;;;;;;5106558;28;20503;-79
2023/07/09 08:11:50;;;;;;;5.80;4.90;;;27.30;58.40;;;;;;5103677;28;20832;-81
2023/07/09 08:14:18;;;;;;;4.03;3.63;;;27.50;56.70;;;;;;5105325;27;20894;-81
2023/07/09 08:16:45;;;;;;;4.80;4.40;;;27.50;55.90;;;;;;5103060;28;20452;-81
2023/07/09 08:19:12;;;;;;;4.50;4.10;;;27.90;54.30;;;;;;5100796;28;20452;-80
2023/07/09 08:21:39;;;;;;;5.17;4.77;;;27.80;52.40;;;;;;5092494;28;20529;-80
2023/07/09 08:24:07;;;;;;;8.70;4.30;;;28.00;54.10;;;;;;5096063;28;20523;-82
2023/07/09 08:26:34;;;;;;;5.70;5.10;;;28.10;49.90;;;;;;5097260;27;20459;-81
2023/07/09 08:29:01;;;;;;;6.60;4.77;;;28.20;50.00;;;;;;5099350;28;20467;-79
2023/07/09 08:31:29;;;;;;;6.13;5.53;;;28.10;49.30;;;;;;5107163;28;20459;-81
2023/07/09 08:33:56;;;;;;;5.73;4.70;;;27.90;49.70;;;;;;5096071;28;20518;-79
2023/07/09 08:36:24;;;;;;;6.47;4.80;;;28.00;52.40;;;;;;5102810;28;20935;-81
2023/07/09 08:38:51;;;;;;;6.63;4.70;;;28.10;50.60;;;;;;5096083;27;20465;-81
2023/07/09 08:41:31;;;;;;;4.10;3.80;;;28.20;49.60;;;;;;5097394;28;20546;-83
2023/07/09 08:44:08;;;;;;;7.50;4.73;;;28.40;49.80;;;;;;5101116;28;20562;-80
2023/07/09 08:46:48;;;;;;;6.20;4.30;;;28.60;47.10;;;;;;5105647;27;20543;-79
2023/07/09 08:49:22;;;;;;;11.50;4.93;;;28.60;48.30;;;;;;5102626;27;20448;-79
2023/07/09 08:51:50;;;;;;;4.20;3.80;;;28.70;46.30;;;;;;5103104;28;20456;-79
2023/07/09 08:54:27;;;;;;;5.77;4.33;;;28.40;45.90;;;;;;5099473;28;20502;-78
2023/07/09 08:56:56;;;;;;;6.03;3.60;;;28.70;47.40;;;;;;5107588;28;20460;-78
2023/07/09 08:59:23;;;;;;;4.83;4.37;;;28.90;46.50;;;;;;5098418;28;20997;-80
2023/07/09 09:01:57;;;;;;;4.77;4.37;;;29.00;45.60;;;;;;5091971;28;20476;-79
2023/07/09 09:04:28;;;;;;;4.53;4.20;;;29.00;45.70;;;;;;5103469;28;20508;-79
2023/07/09 09:07:03;;;;;;;6.53;4.83;;;29.20;44.80;;;;;;5106239;28;20465;-80
2023/07/09 09:09:39;;;;;;;5.53;4.37;;;29.30;43.00;;;;;;5099690;28;20989;-80
2023/07/09 09:12:15;;;;;;;8.77;4.77;;;29.30;44.20;;;;;;5100870;28;20472;-80
2023/07/09 09:14:44;;;;;;;5.50;4.77;;;29.50;42.50;;;;;;5109855;27;20466;-79
2023/07/09 09:17:15;;;;;;;4.27;3.93;;;29.70;41.60;;;;;;5101830;28;20458;-78
2023/07/09 09:19:48;;;;;;;5.97;4.30;;;29.90;42.10;;;;;;5099790;28;20469;-79
2023/07/09 09:22:22;;;;;;;5.43;4.90;;;30.00;41.50;;;;;;5097549;27;21160;-79
2023/07/09 09:24:58;;;;;;;6.80;4.80;;;29.90;41.90;;;;;;5106866;27;20485;-82
2023/07/09 09:27:26;;;;;;;7.30;2.97;;;29.60;41.90;;;;;;5097762;28;20514;-81
2023/07/09 09:29:53;;;;;;;4.90;4.40;;;29.60;40.40;;;;;;5097034;28;20465;-79
2023/07/09 09:32:26;;;;;;;6.17;3.90;;;29.50;40.60;;;;;;5097209;28;20473;-80
2023/07/09 09:34:53;;;;;;;6.77;3.80;;;29.70;42.70;;;;;;5105778;28;20503;-79
2023/07/09 09:37:27;;;;;;;7.40;5.00;;;29.90;42.50;;;;;;5104562;28;20531;-81
2023/07/09 09:39:54;;;;;;;6.80;5.73;;;30.10;38.60;;;;;;5102733;28;20541;-79
2023/07/09 09:42:24;;;;;;;4.53;3.90;;;29.90;39.10;;;;;;5099996;28;20955;-79
2023/07/09 09:44:51;;;;;;;5.10;4.07;;;30.20;38.10;;;;;;5103550;27;20482;-82
2023/07/09 09:47:18;;;;;;;9.23;3.80;;;30.60;39.00;;;;;;5104302;28;20462;-82
2023/07/09 09:49:47;;;;;;;5.13;4.60;;;30.50;37.60;;;;;;5104039;28;20512;-79
2023/07/09 09:52:15;;;;;;;4.37;3.97;;;30.50;37.00;;;;;;5106795;28;20955;-82
2023/07/09 09:54:47;;;;;;;5.13;4.60;;;30.70;39.60;;;;;;5107113;28;20477;-80
2023/07/09 09:57:17;;;;;;;5.17;4.50;;;30.50;36.30;;;;;;5104733;28;20520;-79
2023/07/09 09:59:46;;;;;;;3.83;3.43;;;30.60;36.10;;;;;;5104964;28;20461;-79
2023/07/09 10:02:19;;;;;;;5.50;5.00;;;30.60;36.00;;;;;;5106347;28;20550;-78
2023/07/09 10:04:47;;;;;;;5.10;4.70;;;30.50;32.80;;;;;;5105497;27;20500;-80
2023/07/09 10:07:22;;;;;;;6.20;5.00;;;30.40;34.40;;;;;;5096139;28;20507;-80
2023/07/09 10:09:51;;;;;;;5.00;3.80;;;30.80;36.70;;;;;;5102993;28;20514;-79
2023/07/09 10:12:36;;;;;;;4.50;4.10;;;30.80;33.00;;;;;;5101480;27;20463;-80
2023/07/09 10:15:16;;;;;;;5.17;3.33;;;30.90;34.80;;;;;;5106457;27;20884;-79
2023/07/09 10:17:51;;;;;;;4.97;4.53;;;31.00;33.40;;;;;;5105947;28;20499;-80
2023/07/09 10:20:25;;;;;;;5.40;5.00;;;31.00;33.10;;;;;;5103189;28;20454;-83
2023/07/09 10:22:56;;;;;;;6.20;4.40;;;31.40;29.80;;;;;;5105294;28;20458;-81
2023/07/09 10:25:37;;;;;;;4.87;4.10;;;31.20;30.00;;;;;;5101519;28;20482;-80
2023/07/09 10:28:39;;;;;;;6.50;3.33;;;31.30;29.50;;;;;;5103343;28;20451;-80
2023/07/09 10:31:13;;;;;;;4.57;4.13;;;31.40;30.30;;;;;;5097766;28;20461;-81
2023/07/09 10:33:54;;;;;;;5.77;3.43;;;31.20;31.00;;;;;;5098545;28;20450;-81
2023/07/09 10:36:32;;;;;;;3.83;3.43;;;31.40;33.20;;;;;;5105764;28;20458;-84
2023/07/09 10:39:03;;;;;;;5.03;3.83;;;31.50;32.00;;;;;;5103556;28;20812;-81
2023/07/09 10:41:32;;;;;;;4.30;4.00;;;31.80;29.50;;;;;;5100290;28;22328;-82
2023/07/09 10:44:05;;;;;;;3.37;3.07;;;32.10;29.50;;;;;;5099538;27;21116;-84
2023/07/09 10:46:36;;;;;;;3.90;3.60;;;31.90;26.90;;;;;;5099325;28;20474;-81
2023/07/09 10:49:06;;;;;;;4.53;4.13;;;31.70;26.80;;;;;;5097131;28;20523;-81
2023/07/09 10:51:40;;;;;;;3.27;2.97;;;31.70;26.90;;;;;;5106275;28;20442;-82
2023/07/09 10:54:16;;;;;;;3.50;3.13;;;31.80;25.60;;;;;;5099864;28;20473;-82
2023/07/09 10:56:48;;;;;;;3.43;3.13;;;32.00;26.50;;;;;;5098688;28;20464;-80
2023/07/09 10:59:22;;;;;;;5.37;4.97;;;32.40;27.70;;;;;;5097810;28;21196;-83
2023/07/09 11:01:51;;;;;;;5.93;3.70;;;32.30;27.20;;;;;;5107217;28;20454;-79
2023/07/09 11:04:30;;;;;;;3.97;3.50;;;32.30;27.70;;;;;;5102408;27;20897;-79
2023/07/09 11:07:04;;;;;;;6.70;4.40;;;32.30;25.10;;;;;;5104542;28;20466;-78
2023/07/09 11:09:33;;;;;;;3.10;2.70;;;32.40;24.20;;;;;;5100309;28;20467;-79
2023/07/09 11:12:06;;;;;;;3.80;3.50;;;32.50;23.20;;;;;;5098929;28;20543;-79
2023/07/09 11:14:38;;;;;;;3.50;3.13;;;32.30;22.20;;;;;;5099660;27;20886;-80
2023/07/09 11:17:10;;;;;;;3.93;3.30;;;32.20;22.80;;;;;;5102010;28;20462;-80
2023/07/09 11:19:43;;;;;;;2.90;2.70;;;32.20;20.60;;;;;;5102846;28;20563;-81
2023/07/09 11:22:18;;;;;;;3.00;2.80;;;32.30;20.70;;;;;;5102828;27;20549;-80
2023/07/09 11:24:47;;;;;;;4.17;3.47;;;32.40;20.40;;;;;;5107625;27;20544;-82
2023/07/09 11:27:23;;;;;;;3.87;3.57;;;32.60;19.90;;;;;;5102213;28;20545;-81
2023/07/09 11:29:58;;;;;;;4.10;3.70;;;32.80;23.30;;;;;;5106824;27;21163;-82
2023/07/09 11:32:26;;;;;;;3.77;3.47;;;32.80;21.40;;;;;;5099399;28;20533;-80
2023/07/09 11:34:53;;;;;;;3.37;3.17;;;33.00;19.00;;;;;;5100100;28;20470;-81
2023/07/09 11:37:27;;;;;;;2.93;2.73;;;32.30;19.10;;;;;;5102833;28;20509;-81
2023/07/09 11:39:54;;;;;;;2.43;2.20;;;32.20;21.40;;;;;;5104983;28;21057;-82
2023/07/09 11:42:29;;;;;;;3.20;3.00;;;32.60;20.00;;;;;;5103076;27;20514;-81
2023/07/09 11:45:03;;;;;;;3.23;2.93;;;32.80;19.70;;;;;;5103782;28;20502;-81
2023/07/09 11:47:35;;;;;;;3.10;2.83;;;32.70;18.60;;;;;;5096210;27;20527;-80
2023/07/09 11:50:06;;;;;;;4.17;3.10;;;33.10;19.80;;;;;;5095227;28;20498;-81
2023/07/09 11:52:40;;;;;;;3.03;2.73;;;33.40;17.70;;;;;;5096175;28;20496;-78
2023/07/09 11:55:23;;;;;;;3.07;2.87;;;33.70;16.80;;;;;;5103539;27;20453;-79
2023/07/09 11:57:53;;;;;;;3.30;2.50;;;33.50;14.60;;;;;;5088885;28;20903;-81
2023/07/09 12:00:20;;;;;;;2.57;2.37;;;33.70;16.80;;;;;;5096552;27;20438;-79
2023/07/09 12:02:48;;;;;;;3.27;3.00;;;33.60;14.30;;;;;;5101956;28;20477;-80
2023/07/09 12:05:19;;;;;;;2.83;2.60;;;34.00;14.70;;;;;;5102607;28;20574;-82
2023/07/09 12:07:48;;;;;;;3.27;2.50;;;33.80;12.90;;;;;;5103003;28;20463;-79
2023/07/09 12:10:22;;;;;;;3.07;2.83;;;34.00;15.20;;;;;;5105170;28;20458;-80
2023/07/09 12:12:49;;;;;;;5.37;2.40;;;34.40;12.60;;;;;;5096528;28;20475;-81
2023/07/09 12:15:21;;;;;;;3.70;3.37;;;34.10;12.70;;;;;;5102818;28;20462;-80
2023/07/09 12:17:58;;;;;;;3.80;3.50;;;34.00;14.60;;;;;;5102333;28;20454;-79
2023/07/09 12:20:26;;;;;;;5.47;4.97;;;34.20;15.90;;;;;;5092963;28;20442;-81
2023/07/09 12:22:54;;;;;;;6.63;6.17;;;33.70;13.90;;;;;;5107151;28;20456;-79
2023/07/09 12:25:24;;;;;;;8.43;6.20;;;33.70;13.80;;;;;;5101501;28;20482;-82
2023/07/09 12:27:52;;;;;;;4.97;4.67;;;33.50;16.70;;;;;;5105165;28;21156;-80
2023/07/09 12:30:20;;;;;;;4.67;4.37;;;33.40;15.10;;;;;;5104490;28;20507;-81
2023/07/09 12:32:49;;;;;;;4.60;4.20;;;33.60;14.40;;;;;;5096666;28;20520;-82
2023/07/09 12:35:18;;;;;;;5.03;3.13;;;33.90;14.70;;;;;;5102219;28;20450;-79
2023/07/09 12:37:47;;;;;;;4.00;3.80;;;33.90;14.40;;;;;;5100118;28;20508;-79
2023/07/09 12:40:20;;;;;;;3.07;2.87;;;33.70;13.50;;;;;;5090868;28;20544;-79
2023/07/09 12:42:48;;;;;;;3.90;2.83;;;33.40;15.20;;;;;;5086711;28;20519;-79
2023/07/09 12:45:18;;;;;;;3.27;2.97;;;33.60;16.30;;;;;;5099555;28;20490;-79
2023/07/09 12:47:46;;;;;;;2.77;2.53;;;33.70;12.60;;;;;;5096898;27;20454;-79
2023/07/09 12:50:30;;;;;;;2.90;2.70;;;33.60;12.40;;;;;;5086650;28;20474;-79
2023/07/09 12:53:02;;;;;;;4.00;3.70;;;34.00;14.80;;;;;;5101755;28;20460;-80
2023/07/09 12:55:39;;;;;;;3.50;3.20;;;34.40;11.80;;;;;;5104288;28;20446;-79
2023/07/09 12:58:11;;;;;;;2.63;2.40;;;34.50;12.60;;;;;;5105952;28;20462;-79